Las Vegas, Nevada
Current Conditions -  °F | °C
As of 7:56 PM on Saturday 22 Nov 2014 (Local Time) from KLAS Reporting Station
Clear Clear  
Wind Chill: 60°   Ceiling: Unl
Heat Index: 60°   Visibility: 10mi
Dew Point: 30°   Wind: 8mph
Humidity: 32%   Direction: 270°W
Pressure: 29.85"   Gusts: NA
Location:  36.17°N, 115.13°W
Report Text: KLAS 230356Z 27007KT 10SM CLR 16/M01 A2985 RMK AO2 SLP099 T01561011 $
Loading
Personal Weather Stations






























Interactive Weather Map New forecast layout! Learn more

10-Day Weather Forecast

Advertisements
Track Severe Weather on mobile